Akron, Colorado
Current Conditions -  °F | °C
As of 9:53 AM on Friday 31 Oct 2014 (Local Time) from KAKO Reporting Station
Clear Clear  
Wind Chill: 27°   Ceiling: Unl
Heat Index: 38°   Visibility: 10mi
Dew Point: 29°   Wind: 22mph
Humidity: 70%   Direction: 150°SSE
Pressure: 30.39"   Gusts: 30mph
Location:  40.16°N, 103.21°W
Report Text: KAKO 311553Z AUTO 15019G26KT 10SM CLR 03/M02 A3039 RMK AO2 PK WND 14026/1545 SLP298 T00331017
Loading
Personal Weather Stations






























Interactive Weather Map
Tropical Storm Tracking
New forecast layout! Learn more

10-Day Weather Forecast

Advertisements
Track Severe Weather on mobile